Time;durP1;ratioP1;P1;durP2;ratioP2;P2;SDS_P1;SDS_P2;PMS_P1;PMS_P2;Temp;Humidity;BMP_temperature;BMP_pressure;BME280_temperature;BME280_humidity;BME280_pressure;Samples;Min_cycle;Max_cycle;Signal;HPM_P1;HPM_P2
2023/06/18 00:00:34;;;;;;;1999.90;999.90;;;20.90;53.30;;;;;;5012114;28;20461;-70
2023/06/18 00:03:00;;;;;;;1999.90;999.90;;;20.90;53.70;;;;;;5011784;28;20183;-69
2023/06/18 00:05:25;;;;;;;1999.90;999.90;;;20.80;54.70;;;;;;5012637;28;20666;-70
2023/06/18 00:07:51;;;;;;;1999.90;999.90;;;20.70;55.70;;;;;;5012229;28;20226;-69
2023/06/18 00:10:17;;;;;;;1999.90;999.90;;;20.70;56.60;;;;;;5012047;28;20234;-69
2023/06/18 00:12:42;;;;;;;1999.90;999.90;;;20.50;58.70;;;;;;5012123;28;20172;-70
2023/06/18 00:15:08;;;;;;;1999.90;999.90;;;20.50;59.40;;;;;;5015569;28;20198;-70
2023/06/18 00:17:35;;;;;;;1999.90;999.90;;;20.40;61.40;;;;;;5015642;28;20178;-70
2023/06/18 00:20:01;;;;;;;1999.90;999.90;;;20.30;63.60;;;;;;5015457;28;20773;-70
2023/06/18 00:22:26;;;;;;;1999.90;999.90;;;20.20;64.90;;;;;;5014915;28;20506;-70
2023/06/18 00:24:52;;;;;;;1999.90;999.90;;;20.20;65.70;;;;;;5015367;28;20692;-70
2023/06/18 00:27:20;;;;;;;1999.90;999.90;;;20.10;65.00;;;;;;5015132;28;20210;-70
2023/06/18 00:29:47;;;;;;;1999.90;999.90;;;20.10;64.60;;;;;;5015251;28;20202;-69
2023/06/18 00:32:14;;;;;;;1999.90;999.90;;;20.00;64.30;;;;;;5014968;28;20405;-69
2023/06/18 00:34:41;;;;;;;1999.90;999.90;;;19.80;65.60;;;;;;5015296;28;20504;-69
2023/06/18 00:37:09;;;;;;;1999.90;999.90;;;19.80;67.90;;;;;;5015251;28;20502;-70
2023/06/18 00:39:36;;;;;;;1999.90;999.90;;;19.70;71.40;;;;;;5015202;28;20954;-71
2023/06/18 00:42:02;;;;;;;1999.90;999.90;;;19.70;72.10;;;;;;5014649;28;20504;-69
2023/06/18 00:44:28;;;;;;;1999.90;999.90;;;19.70;70.80;;;;;;5014747;28;20456;-69
2023/06/18 00:46:56;;;;;;;1999.90;999.90;;;19.50;70.60;;;;;;5015036;28;20543;-69
2023/06/18 00:49:22;;;;;;;1999.90;999.90;;;19.40;71.10;;;;;;5015020;28;20416;-69
2023/06/18 00:51:48;;;;;;;1999.90;999.90;;;19.20;73.70;;;;;;5014839;28;20444;-69
2023/06/18 00:54:15;;;;;;;1999.90;999.90;;;19.30;77.20;;;;;;5015060;28;20437;-69
2023/06/18 00:56:50;;;;;;;1999.90;999.90;;;19.30;78.90;;;;;;5014938;28;20407;-70
2023/06/18 00:59:22;;;;;;;1999.90;999.90;;;19.30;78.00;;;;;;5015301;28;20395;-69
2023/06/18 01:01:51;;;;;;;1999.90;999.90;;;19.30;80.60;;;;;;5014347;28;20900;-70
2023/06/18 01:04:17;;;;;;;1999.90;999.90;;;19.30;80.90;;;;;;5014699;28;20546;-70
2023/06/18 01:06:43;;;;;;;1999.90;999.90;;;19.30;79.50;;;;;;5014607;28;20501;-70
2023/06/18 01:09:12;;;;;;;1999.90;999.90;;;19.30;81.40;;;;;;5014391;28;20414;-70
2023/06/18 01:11:40;;;;;;;1999.90;999.90;;;19.30;84.00;;;;;;5013955;28;20419;-69
2023/06/18 01:14:09;;;;;;;1999.90;999.90;;;19.20;85.40;;;;;;5014211;28;20457;-69
2023/06/18 01:16:46;;;;;;;1999.90;999.90;;;19.10;87.30;;;;;;5014187;28;20396;-70
2023/06/18 01:19:21;;;;;;;1999.90;999.90;;;19.10;87.90;;;;;;5014249;28;20447;-71
2023/06/18 01:21:54;;;;;;;1999.90;999.90;;;19.10;89.30;;;;;;5013764;28;20419;-70
2023/06/18 01:24:24;;;;;;;1999.90;999.90;;;19.20;88.60;;;;;;5012997;28;20416;-70
2023/06/18 01:26:54;;;;;;;1999.90;999.90;;;19.10;89.90;;;;;;5013752;28;20479;-70
2023/06/18 01:29:20;;;;;;;1999.90;999.90;;;19.00;90.70;;;;;;5014163;28;20993;-69
2023/06/18 01:31:45;;;;;;;1999.90;999.90;;;19.00;91.60;;;;;;5013759;28;20412;-70
2023/06/18 01:34:12;;;;;;;1999.90;999.90;;;19.00;92.80;;;;;;5013986;28;20200;-70
2023/06/18 01:36:56;;;;;;;1999.90;999.90;;;18.90;94.10;;;;;;5013944;28;20221;-70
2023/06/18 01:39:34;;;;;;;1999.90;999.90;;;18.90;94.60;;;;;;5013815;28;20427;-70
2023/06/18 01:42:10;;;;;;;1999.90;999.90;;;18.90;95.00;;;;;;5013510;28;20450;-70
2023/06/18 01:44:38;;;;;;;1999.90;999.90;;;18.90;94.90;;;;;;5013595;28;20480;-70
2023/06/18 01:47:05;;;;;;;1999.90;999.90;;;18.90;94.90;;;;;;5013641;28;20952;-70
2023/06/18 01:49:32;;;;;;;1999.90;999.90;;;18.80;95.50;;;;;;5013769;28;20897;-70
2023/06/18 01:52:02;;;;;;;1999.90;999.90;;;18.80;96.90;;;;;;5013198;28;20829;-70
2023/06/18 01:54:28;;;;;;;1999.90;999.90;;;18.80;97.90;;;;;;5013831;28;20414;-70
2023/06/18 01:56:54;;;;;;;1999.90;999.90;;;18.70;99.50;;;;;;5013602;28;20387;-70
2023/06/18 01:59:20;;;;;;;1999.90;999.90;;;18.70;99.40;;;;;;5013388;28;20898;-70
2023/06/18 02:01:46;;;;;;;1999.90;999.90;;;18.60;99.90;;;;;;5013186;28;20465;-70
2023/06/18 02:04:11;;;;;;;1999.90;999.90;;;18.60;99.10;;;;;;5013337;28;20197;-70
2023/06/18 02:06:37;;;;;;;1999.90;999.90;;;18.60;99.90;;;;;;5013439;28;20250;-70
2023/06/18 02:09:03;;;;;;;1999.90;999.90;;;18.50;99.90;;;;;;5013680;28;20177;-70
2023/06/18 02:11:28;;;;;;;1999.90;999.90;;;18.40;99.90;;;;;;5013340;28;20173;-70
2023/06/18 02:13:54;;;;;;;1999.90;999.90;;;18.40;99.90;;;;;;5013573;28;20431;-70
2023/06/18 02:16:20;;;;;;;1999.90;999.90;;;18.30;99.90;;;;;;5013172;28;20208;-70
2023/06/18 02:18:45;;;;;;;1999.90;999.90;;;18.20;99.90;;;;;;5013194;28;20177;-69
2023/06/18 02:21:11;;;;;;;1999.90;999.90;;;18.20;99.90;;;;;;5012608;28;20267;-70
2023/06/18 02:23:36;;;;;;;1999.90;999.90;;;18.10;99.90;;;;;;5012862;28;20568;-70
2023/06/18 02:26:03;;;;;;;1999.90;999.90;;;18.10;99.90;;;;;;5012802;28;20209;-70
2023/06/18 02:28:29;;;;;;;1999.90;999.90;;;18.00;99.90;;;;;;5012884;28;20196;-70
2023/06/18 02:30:57;;;;;;;1999.90;999.90;;;18.00;99.90;;;;;;5012668;28;20413;-69
2023/06/18 02:33:23;;;;;;;1999.90;999.90;;;18.00;99.90;;;;;;5012879;28;20177;-69
2023/06/18 02:35:49;;;;;;;1999.90;999.90;;;18.00;99.90;;;;;;5012703;28;20413;-70
2023/06/18 02:38:15;;;;;;;1999.90;999.90;;;17.90;99.90;;;;;;5012899;28;20190;-69
2023/06/18 02:40:40;;;;;;;1999.90;999.90;;;17.80;99.90;;;;;;5012770;28;20386;-71
2023/06/18 02:43:06;;;;;;;1999.90;999.90;;;17.80;99.90;;;;;;5012384;28;20181;-70
2023/06/18 02:45:31;;;;;;;1999.90;999.90;;;17.70;99.90;;;;;;5012365;28;20257;-70
2023/06/18 02:47:57;;;;;;;1999.90;999.90;;;17.80;99.90;;;;;;5012478;28;20204;-70
2023/06/18 02:50:23;;;;;;;1999.90;999.90;;;17.80;99.90;;;;;;5012737;28;20180;-70
2023/06/18 02:52:49;;;;;;;1999.90;999.90;;;17.80;99.90;;;;;;5012557;28;20180;-69
2023/06/18 02:55:15;;;;;;;1999.90;999.90;;;17.80;99.90;;;;;;5012505;28;20198;-69
2023/06/18 02:57:41;;;;;;;1999.90;999.90;;;17.80;99.90;;;;;;5012482;28;20230;-68
2023/06/18 03:00:12;;;;;;;1999.90;999.90;;;17.70;99.90;;;;;;5012404;28;20406;-70
2023/06/18 03:02:39;;;;;;;1999.90;999.90;;;17.70;99.90;;;;;;5012167;28;20418;-69
2023/06/18 03:05:04;;;;;;;1999.90;999.90;;;17.70;99.90;;;;;;5012261;28;20503;-69
2023/06/18 03:07:31;;;;;;;1999.90;999.90;;;17.60;99.90;;;;;;5012297;28;20947;-70
2023/06/18 03:09:57;;;;;;;1999.90;999.90;;;17.60;99.90;;;;;;5012713;28;20657;-69
2023/06/18 03:12:22;;;;;;;1999.90;999.90;;;17.50;99.90;;;;;;5012039;28;20409;-70
2023/06/18 03:14:48;;;;;;;1999.90;999.90;;;17.50;99.90;;;;;;5012242;28;20206;-70
2023/06/18 03:17:14;;;;;;;1999.90;999.90;;;17.50;99.90;;;;;;5012244;28;20639;-70
2023/06/18 03:19:39;;;;;;;1999.90;999.90;;;17.50;99.90;;;;;;5012466;28;20186;-69
2023/06/18 03:22:05;;;;;;;1999.90;999.90;;;17.40;99.90;;;;;;5011820;28;20209;-69
2023/06/18 03:24:32;;;;;;;1999.90;999.90;;;17.50;99.90;;;;;;5012196;28;20742;-69
2023/06/18 03:26:58;;;;;;;1999.90;999.90;;;17.50;99.90;;;;;;5012054;28;20534;-69
2023/06/18 03:29:25;;;;;;;1999.90;999.90;;;17.50;99.90;;;;;;5012156;28;20419;-70
2023/06/18 03:31:53;;;;;;;1999.90;999.90;;;17.50;99.90;;;;;;5011774;28;20421;-70
2023/06/18 03:34:20;;;;;;;1999.90;999.90;;;17.50;99.90;;;;;;5011958;28;20484;-70
2023/06/18 03:36:47;;;;;;;1999.90;999.90;;;17.60;99.90;;;;;;5012114;28;20497;-70
2023/06/18 03:39:15;;;;;;;1999.90;999.90;;;17.60;99.90;;;;;;5012152;28;20438;-70
2023/06/18 03:41:41;;;;;;;1999.90;999.90;;;17.60;99.90;;;;;;5011903;28;20424;-69
2023/06/18 03:44:07;;;;;;;1999.90;999.90;;;17.60;99.90;;;;;;5011755;28;20448;-70
2023/06/18 03:46:33;;;;;;;1999.90;999.90;;;17.60;99.90;;;;;;5011871;28;20443;-70
2023/06/18 03:48:59;;;;;;;1999.90;999.90;;;17.70;99.90;;;;;;5014493;28;20462;-69
2023/06/18 03:51:25;;;;;;;1999.90;999.90;;;17.60;99.90;;;;;;5015682;28;20186;-70
2023/06/18 03:53:51;;;;;;;1999.90;999.90;;;17.60;99.90;;;;;;5015790;28;20449;-69
2023/06/18 03:56:18;;;;;;;1999.90;999.90;;;17.60;99.90;;;;;;5015741;28;20426;-69
2023/06/18 03:58:44;;;;;;;1999.90;999.90;;;17.60;99.90;;;;;;5016000;28;20215;-69
2023/06/18 04:01:10;;;;;;;1999.90;999.90;;;17.50;99.90;;;;;;5015840;28;21024;-69
2023/06/18 04:03:37;;;;;;;1999.90;999.90;;;17.40;99.90;;;;;;5015749;28;20933;-69
2023/06/18 04:06:03;;;;;;;1999.90;999.90;;;17.40;99.90;;;;;;5015692;28;20422;-69
2023/06/18 04:08:28;;;;;;;1999.90;999.90;;;17.30;99.90;;;;;;5015733;28;20461;-69
2023/06/18 04:10:55;;;;;;;1999.90;999.90;;;17.30;99.90;;;;;;5015375;28;20684;-69
2023/06/18 04:13:22;;;;;;;1999.90;999.90;;;17.40;99.90;;;;;;5015546;28;20645;-69
2023/06/18 04:15:48;;;;;;;1999.90;999.90;;;17.40;99.90;;;;;;5015422;28;20419;-69
2023/06/18 04:18:14;;;;;;;1999.90;999.90;;;17.40;99.90;;;;;;5015409;28;20831;-70
2023/06/18 04:20:39;;;;;;;1999.90;999.90;;;17.40;99.90;;;;;;5015285;28;20549;-69
2023/06/18 04:23:06;;;;;;;1999.90;999.90;;;17.40;99.90;;;;;;5015178;28;20196;-70
2023/06/18 04:25:32;;;;;;;1999.90;999.90;;;17.50;99.90;;;;;;5015319;28;20197;-69
2023/06/18 04:27:58;;;;;;;1999.90;999.90;;;17.60;99.90;;;;;;5015556;28;20458;-69
2023/06/18 04:30:24;;;;;;;1999.90;999.90;;;17.70;99.90;;;;;;5015551;28;20909;-69
2023/06/18 04:32:49;;;;;;;1999.90;999.90;;;17.70;99.90;;;;;;5015053;28;20402;-70
2023/06/18 04:35:15;;;;;;;1999.90;999.90;;;17.80;99.90;;;;;;5015386;28;20648;-69
2023/06/18 04:37:41;;;;;;;1999.90;999.90;;;17.90;99.90;;;;;;5015138;28;20175;-69
2023/06/18 04:40:07;;;;;;;1999.90;999.90;;;17.90;99.90;;;;;;5014950;28;20293;-69
2023/06/18 04:42:32;;;;;;;1999.90;999.90;;;17.90;99.90;;;;;;5014673;28;20187;-69
2023/06/18 04:44:58;;;;;;;1999.90;999.90;;;18.00;99.90;;;;;;5014527;28;20833;-70
2023/06/18 04:47:24;;;;;;;1999.90;999.90;;;18.20;99.90;;;;;;5014756;28;20239;-69
2023/06/18 04:49:50;;;;;;;1999.90;999.90;;;18.30;99.90;;;;;;5014757;28;20204;-69
2023/06/18 04:52:15;;;;;;;1999.90;999.90;;;18.40;99.90;;;;;;5014448;28;20219;-69
2023/06/18 04:54:42;;;;;;;1999.90;999.90;;;18.60;99.90;;;;;;5014518;28;20463;-69
2023/06/18 04:57:10;;;;;;;1999.90;999.90;;;18.60;99.90;;;;;;5014609;28;20637;-69
2023/06/18 04:59:38;;;;;;;1999.90;999.90;;;18.70;99.90;;;;;;5014404;28;20438;-69
2023/06/18 05:02:03;;;;;;;1999.90;999.90;;;18.70;99.90;;;;;;5014324;28;20924;-69
2023/06/18 05:04:29;;;;;;;1999.90;999.90;;;18.80;99.90;;;;;;5014723;28;20439;-70
2023/06/18 05:06:56;;;;;;;1999.90;999.90;;;18.80;99.90;;;;;;5015180;28;20472;-70
2023/06/18 05:09:22;;;;;;;1999.90;999.90;;;18.80;99.90;;;;;;5014973;28;20412;-70
2023/06/18 05:11:47;;;;;;;1999.90;999.90;;;18.80;99.90;;;;;;5014255;28;20400;-69
2023/06/18 05:14:13;;;;;;;1999.90;999.90;;;18.90;99.90;;;;;;5014689;28;20433;-69
2023/06/18 05:16:39;;;;;;;1999.90;999.90;;;19.00;99.90;;;;;;5014472;28;20184;-70
2023/06/18 05:19:04;;;;;;;1999.90;999.90;;;19.10;99.90;;;;;;5014263;28;20180;-70
2023/06/18 05:21:30;;;;;;;1999.90;999.90;;;19.10;99.90;;;;;;5014087;28;20174;-68
2023/06/18 05:23:56;;;;;;;1999.90;999.90;;;19.10;99.90;;;;;;5014170;28;20185;-69
2023/06/18 05:26:21;;;;;;;1999.90;999.90;;;19.10;99.90;;;;;;5014086;28;20669;-69
2023/06/18 05:28:48;;;;;;;1999.90;999.90;;;19.20;99.90;;;;;;5014021;28;20541;-69
2023/06/18 05:31:14;;;;;;;1999.90;999.90;;;19.10;99.90;;;;;;5013934;28;20168;-69
2023/06/18 05:33:39;;;;;;;1999.90;999.90;;;19.20;99.90;;;;;;5013905;28;20399;-69
2023/06/18 05:36:05;;;;;;;1999.90;999.90;;;19.10;99.90;;;;;;5014018;28;20167;-69
2023/06/18 05:38:30;;;;;;;1999.90;999.90;;;19.20;99.90;;;;;;5013773;28;20180;-69
2023/06/18 05:40:56;;;;;;;1999.90;999.90;;;19.20;99.90;;;;;;5013530;28;20207;-69
2023/06/18 05:43:22;;;;;;;1999.90;999.90;;;19.20;99.90;;;;;;5013728;28;20168;-68
2023/06/18 05:45:47;;;;;;;1999.90;999.90;;;19.20;99.90;;;;;;5013747;28;20204;-69
2023/06/18 05:48:14;;;;;;;1999.90;999.90;;;19.30;99.90;;;;;;5013646;28;20193;-70
2023/06/18 05:50:40;;;;;;;1999.90;999.90;;;19.30;99.90;;;;;;5013643;28;20569;-69
2023/06/18 05:53:06;;;;;;;1999.90;999.90;;;19.30;99.90;;;;;;5013283;28;20404;-69
2023/06/18 05:55:31;;;;;;;1999.90;999.90;;;19.30;99.90;;;;;;5013467;28;20419;-69
2023/06/18 05:57:57;;;;;;;1999.90;999.90;;;19.40;99.90;;;;;;5013430;28;20253;-69
2023/06/18 06:00:23;;;;;;;1999.90;999.90;;;19.50;99.90;;;;;;5013382;28;20670;-68
2023/06/18 06:02:48;;;;;;;1999.90;999.90;;;19.60;99.90;;;;;;5013143;28;20177;-69
2023/06/18 06:05:14;;;;;;;1999.90;999.90;;;19.80;99.90;;;;;;5013298;28;20213;-69
2023/06/18 06:07:39;;;;;;;1999.90;999.90;;;19.90;99.90;;;;;;5013231;28;20578;-70
2023/06/18 06:10:06;;;;;;;1999.90;999.90;;;19.90;99.90;;;;;;5013006;28;20605;-69
2023/06/18 06:12:31;;;;;;;1999.90;999.90;;;20.00;99.90;;;;;;5011906;28;20645;-70
2023/06/18 06:14:57;;;;;;;1999.90;999.90;;;20.20;99.90;;;;;;5012992;28;20501;-68
2023/06/18 06:17:22;;;;;;;1999.90;999.90;;;20.40;99.90;;;;;;5013154;28;20584;-69
2023/06/18 06:19:48;;;;;;;1999.90;999.90;;;20.50;99.90;;;;;;5013006;28;20183;-69
2023/06/18 06:22:14;;;;;;;1999.90;999.90;;;20.60;99.90;;;;;;5012691;28;20229;-69
2023/06/18 06:24:40;;;;;;;1999.90;999.90;;;20.70;99.90;;;;;;5012997;28;20925;-69
2023/06/18 06:27:06;;;;;;;1999.90;999.90;;;20.80;99.90;;;;;;5013039;28;20206;-69
2023/06/18 06:29:31;;;;;;;1999.90;999.90;;;20.90;99.90;;;;;;5012993;28;20545;-69
2023/06/18 06:31:57;;;;;;;1999.90;999.90;;;20.80;99.90;;;;;;5012557;28;20198;-69
2023/06/18 06:34:22;;;;;;;1999.90;999.90;;;20.90;99.90;;;;;;5012627;28;20195;-69
2023/06/18 06:36:49;;;;;;;1999.90;999.90;;;21.00;99.90;;;;;;5013068;28;20199;-69
2023/06/18 06:39:16;;;;;;;1999.90;999.90;;;21.10;99.90;;;;;;5012773;28;20184;-70
2023/06/18 06:41:42;;;;;;;1999.90;999.90;;;21.20;99.90;;;;;;5012653;28;20410;-69
2023/06/18 06:44:07;;;;;;;1999.90;999.90;;;21.50;99.90;;;;;;5012561;28;20421;-69
2023/06/18 06:46:34;;;;;;;1999.90;999.90;;;21.70;99.90;;;;;;5012856;28;20192;-69
2023/06/18 06:49:00;;;;;;;1999.90;999.90;;;21.90;99.90;;;;;;5012647;28;20673;-69
2023/06/18 06:51:25;;;;;;;1999.90;999.90;;;22.10;99.90;;;;;;5012493;28;20401;-69
2023/06/18 06:53:51;;;;;;;1999.90;999.90;;;22.30;99.60;;;;;;5012570;28;20189;-70
2023/06/18 06:56:17;;;;;;;1999.90;999.90;;;22.50;98.70;;;;;;5012722;28;20172;-70
2023/06/18 06:58:42;;;;;;;1999.90;999.90;;;22.70;97.90;;;;;;5012682;28;20167;-69
2023/06/18 07:01:08;;;;;;;1999.90;999.90;;;22.90;96.10;;;;;;5012393;28;20169;-70
2023/06/18 07:03:34;;;;;;;1999.90;999.90;;;23.10;93.90;;;;;;5012379;28;20167;-70
2023/06/18 07:06:00;;;;;;;1999.90;999.90;;;23.20;93.30;;;;;;5012692;28;20201;-70
2023/06/18 07:08:25;;;;;;;1999.90;999.90;;;23.30;94.00;;;;;;5012602;28;20846;-70
2023/06/18 07:10:51;;;;;;;1999.90;999.90;;;23.40;91.70;;;;;;5012573;28;20414;-71
2023/06/18 07:13:18;;;;;;;1999.90;999.90;;;23.60;88.40;;;;;;5012582;28;20600;-69
2023/06/18 07:15:43;;;;;;;1999.90;999.90;;;23.70;86.40;;;;;;5012453;28;20745;-70
2023/06/18 07:18:09;;;;;;;1999.90;999.90;;;23.80;86.40;;;;;;5012481;28;20477;-69
2023/06/18 07:20:35;;;;;;;1999.90;999.90;;;23.90;84.90;;;;;;5012399;28;20177;-70
2023/06/18 07:23:00;;;;;;;1999.90;999.90;;;24.10;82.30;;;;;;5013075;28;20408;-70
2023/06/18 07:25:26;;;;;;;1999.90;999.90;;;24.30;77.70;;;;;;5016355;28;20189;-70
2023/06/18 07:27:51;;;;;;;1999.90;999.90;;;24.40;73.60;;;;;;5016699;28;20227;-71
2023/06/18 07:30:17;;;;;;;1999.90;999.90;;;24.50;72.70;;;;;;5016445;28;20164;-69
2023/06/18 07:32:43;;;;;;;1999.90;999.90;;;24.60;67.80;;;;;;5016150;28;20627;-70
2023/06/18 07:35:08;;;;;;;1999.90;999.90;;;24.60;64.80;;;;;;5015902;28;20184;-70
2023/06/18 07:37:34;;;;;;;1999.90;999.90;;;24.70;58.60;;;;;;5016007;28;20177;-69
2023/06/18 07:40:00;;;;;;;1999.90;999.90;;;24.80;53.60;;;;;;5015887;28;20677;-71
2023/06/18 07:42:25;;;;;;;1999.90;999.90;;;24.80;53.10;;;;;;5015559;28;20399;-70
2023/06/18 07:44:52;;;;;;;1999.90;999.90;;;24.90;51.10;;;;;;5015672;28;20201;-71
2023/06/18 07:47:18;;;;;;;1999.90;999.90;;;24.90;51.30;;;;;;5015787;28;20192;-70
2023/06/18 07:49:44;;;;;;;1999.90;999.90;;;25.10;51.20;;;;;;5015848;28;20381;-70
2023/06/18 07:52:10;;;;;;;1999.90;999.90;;;25.20;49.80;;;;;;5015294;28;20407;-70
2023/06/18 07:54:36;;;;;;;1999.90;999.90;;;25.40;44.80;;;;;;5015504;28;20193;-70
2023/06/18 07:57:02;;;;;;;1999.90;999.90;;;25.60;46.50;;;;;;5015264;28;20473;-70
2023/06/18 07:59:28;;;;;;;1999.90;999.90;;;25.90;45.10;;;;;;5014358;28;20175;-69
2023/06/18 08:01:53;;;;;;;1999.90;999.90;;;26.10;43.10;;;;;;5014321;28;20874;-69
2023/06/18 08:04:19;;;;;;;1999.90;999.90;;;26.40;42.10;;;;;;5014350;28;20670;-70
2023/06/18 08:06:48;;;;;;;1999.90;999.90;;;26.60;38.40;;;;;;5015282;28;20181;-70
2023/06/18 08:09:14;;;;;;;1999.90;999.90;;;26.90;31.70;;;;;;5015610;28;20424;-70
2023/06/18 08:11:40;;;;;;;1999.90;999.90;;;26.90;28.90;;;;;;5015041;28;20404;-70
2023/06/18 08:14:05;;;;;;;1999.90;999.90;;;27.10;28.40;;;;;;5015805;28;20395;-70
2023/06/18 08:16:31;;;;;;;1999.90;999.90;;;27.30;26.40;;;;;;5015352;28;20389;-71
2023/06/18 08:18:57;;;;;;;1999.90;999.90;;;27.30;22.40;;;;;;5015187;28;20169;-69
2023/06/18 08:21:22;;;;;;;1999.90;999.90;;;27.30;23.70;;;;;;5014969;28;20219;-70
2023/06/18 08:23:48;;;;;;;1999.90;999.90;;;27.30;20.90;;;;;;5015018;28;20197;-70
2023/06/18 08:26:14;;;;;;;1999.90;999.90;;;27.30;24.80;;;;;;5015245;28;20165;-70
2023/06/18 08:28:40;;;;;;;1999.90;999.90;;;26.80;23.50;;;;;;5015161;28;20176;-70
2023/06/18 08:31:05;;;;;;;1999.90;999.90;;;26.00;22.30;;;;;;5014985;28;20769;-71
2023/06/18 08:33:31;;;;;;;1999.90;999.90;;;25.60;23.50;;;;;;5014414;28;20192;-70
2023/06/18 08:35:57;;;;;;;1999.90;999.90;;;25.20;24.80;;;;;;5015021;28;20177;-69
2023/06/18 08:38:22;;;;;;;1999.90;999.90;;;25.20;25.10;;;;;;5014987;28;20706;-70
2023/06/18 08:40:52;;;;;;;1999.90;999.90;;;25.10;23.80;;;;;;5014763;28;20169;-72
2023/06/18 08:43:26;;;;;;;1999.90;999.90;;;25.20;23.50;;;;;;5015225;28;20171;-70
2023/06/18 08:45:53;;;;;;;1999.90;999.90;;;25.30;25.20;;;;;;5014864;28;20492;-69
2023/06/18 08:48:27;;;;;;;1999.90;999.90;;;25.40;23.60;;;;;;5017484;28;20430;-70
2023/06/18 08:51:05;;;;;;;1999.90;999.90;;;25.60;25.90;;;;;;5017639;28;20436;-70
2023/06/18 08:53:51;;;;;;;1999.90;999.90;;;25.60;25.00;;;;;;5014691;28;20411;-70
2023/06/18 08:56:21;;;;;;;1999.90;999.90;;;25.80;25.50;;;;;;5007534;28;20417;-71
2023/06/18 08:58:52;;;;;;;1999.90;999.90;;;25.90;24.40;;;;;;5014387;28;20381;-70
2023/06/18 09:01:19;;;;;;;1999.90;999.90;;;26.10;23.50;;;;;;5014387;28;20436;-70
2023/06/18 09:03:45;;;;;;;1999.90;999.90;;;26.40;23.60;;;;;;5014822;28;20404;-69
2023/06/18 09:06:12;;;;;;;1999.90;999.90;;;26.30;26.10;;;;;;5015292;28;20462;-70
2023/06/18 09:08:39;;;;;;;1999.90;999.90;;;25.90;27.70;;;;;;5015003;28;20412;-69
2023/06/18 09:11:06;;;;;;;1999.90;999.90;;;25.60;27.00;;;;;;5014275;28;20971;-70
2023/06/18 09:13:33;;;;;;;1999.90;999.90;;;25.50;30.00;;;;;;5011381;28;20453;-70
2023/06/18 09:15:59;;;;;;;1999.90;999.90;;;25.50;29.70;;;;;;5013108;28;20408;-70
2023/06/18 09:18:25;;;;;;;1999.90;999.90;;;25.50;29.20;;;;;;5013511;28;20404;-70
2023/06/18 09:20:54;;;;;;;1999.90;999.90;;;25.70;31.20;;;;;;5013208;28;20484;-70
2023/06/18 09:23:20;;;;;;;1999.90;999.90;;;25.70;30.00;;;;;;5013112;28;20179;-70
2023/06/18 09:25:52;;;;;;;1999.90;999.90;;;26.00;27.40;;;;;;5012734;28;20794;-70
2023/06/18 09:28:21;;;;;;;1999.90;999.90;;;26.20;25.40;;;;;;5013415;28;20614;-71
2023/06/18 09:30:52;;;;;;;1999.90;999.90;;;26.50;20.70;;;;;;5013435;28;20394;-71
2023/06/18 09:33:36;;;;;;;1999.90;999.90;;;26.90;21.30;;;;;;5013146;28;20421;-70
2023/06/18 09:36:06;;;;;;;1999.90;999.90;;;27.00;22.70;;;;;;5013086;28;20901;-71
2023/06/18 09:38:40;;;;;;;1999.90;999.90;;;27.30;22.00;;;;;;5013053;28;20447;-71
2023/06/18 09:41:11;;;;;;;1999.90;999.90;;;27.40;20.50;;;;;;5012857;28;20422;-70
2023/06/18 09:43:43;;;;;;;1999.90;999.90;;;27.20;20.40;;;;;;5012762;28;20487;-71
2023/06/18 09:46:09;;;;;;;1999.90;999.90;;;27.10;19.20;;;;;;5011729;28;20426;-70
2023/06/18 09:48:46;;;;;;;1999.90;999.90;;;27.10;19.30;;;;;;5012385;28;20387;-70
2023/06/18 09:51:14;;;;;;;1999.90;999.90;;;27.10;20.20;;;;;;5012766;28;20405;-70
2023/06/18 09:53:40;;;;;;;1999.90;999.90;;;27.40;19.20;;;;;;5012714;28;20404;-70
2023/06/18 09:56:14;;;;;;;1999.90;999.90;;;27.20;19.90;;;;;;5012375;28;20415;-71
2023/06/18 09:58:46;;;;;;;1999.90;999.90;;;27.60;19.10;;;;;;5012522;28;20216;-71
2023/06/18 10:01:12;;;;;;;1999.90;999.90;;;27.90;18.10;;;;;;5012513;28;20430;-72
2023/06/18 10:03:38;;;;;;;1999.90;999.90;;;28.40;17.30;;;;;;5012384;28;20408;-71
2023/06/18 10:06:22;;;;;;;1999.90;999.90;;;28.80;16.50;;;;;;5012297;28;20436;-71
2023/06/18 10:08:55;;;;;;;1999.90;999.90;;;29.30;14.70;;;;;;5012502;28;20424;-71
2023/06/18 10:11:21;;;;;;;1999.90;999.90;;;29.80;12.50;;;;;;5012360;28;20894;-71
2023/06/18 10:13:57;;;;;;;1999.90;999.90;;;30.30;10.30;;;;;;5012381;28;20426;-71
2023/06/18 10:16:26;;;;;;;1999.90;999.90;;;30.10;8.70;;;;;;5012418;28;20384;-71
2023/06/18 10:19:13;;;;;;;1999.90;999.90;;;29.90;8.00;;;;;;5012047;28;20408;-71
2023/06/18 10:21:47;;;;;;;1999.90;999.90;;;29.10;7.60;;;;;;5012330;28;20427;-71
2023/06/18 10:24:22;;;;;;;1999.90;999.90;;;28.70;9.20;;;;;;5012134;28;20448;-71
2023/06/18 10:26:49;;;;;;;1999.90;999.90;;;28.70;9.00;;;;;;5012166;28;20521;-71
2023/06/18 10:29:15;;;;;;;1999.90;999.90;;;29.00;10.10;;;;;;5012754;28;20774;-71
2023/06/18 10:31:41;;;;;;;1999.90;999.90;;;29.40;9.00;;;;;;5013293;28;20783;-71
2023/06/18 10:34:08;;;;;;;1999.90;999.90;;;29.60;8.30;;;;;;5013097;28;20412;-71
2023/06/18 10:36:34;;;;;;;1999.90;999.90;;;29.90;8.30;;;;;;5013398;28;20941;-71
2023/06/18 10:39:01;;;;;;;1999.90;999.90;;;30.20;8.00;;;;;;5013173;28;20450;-71
2023/06/18 10:41:27;;;;;;;1999.90;999.90;;;30.20;6.40;;;;;;5013086;28;20462;-71
2023/06/18 10:43:54;;;;;;;1999.90;999.90;;;30.60;6.90;;;;;;5012871;28;20455;-71
2023/06/18 10:46:21;;;;;;;1999.90;999.90;;;30.40;6.60;;;;;;5013187;28;20181;-71
2023/06/18 10:49:16;;;;;;;1999.90;999.90;;;30.30;5.90;;;;;;5012968;28;20408;-71
2023/06/18 10:52:12;;;;;;;1999.90;999.90;;;29.60;5.10;;;;;;5013045;28;20766;-72
2023/06/18 10:54:38;;;;;;;1999.90;999.90;;;29.30;7.70;;;;;;5012609;28;20419;-71
2023/06/18 10:57:05;;;;;;;1999.90;999.90;;;29.00;8.10;;;;;;5012794;28;20443;-71
2023/06/18 10:59:41;;;;;;;1999.90;999.90;;;28.70;6.70;;;;;;5012924;28;20987;-72
2023/06/18 11:02:07;;;;;;;1999.90;999.90;;;28.80;7.10;;;;;;5012444;28;20238;-71
2023/06/18 11:04:33;;;;;;;1999.90;999.90;;;29.10;7.10;;;;;;5012862;28;20427;-71
2023/06/18 11:07:25;;;;;;;1999.90;999.90;;;29.40;7.10;;;;;;5012485;28;20276;-71
2023/06/18 11:09:59;;;;;;;1999.90;999.90;;;29.90;6.00;;;;;;5012648;28;20419;-72
2023/06/18 11:12:30;;;;;;;1999.90;999.90;;;30.40;6.10;;;;;;5012759;28;20410;-71
2023/06/18 11:15:16;;;;;;;1999.90;999.90;;;30.60;4.10;;;;;;5012396;28;20451;-71
2023/06/18 11:17:48;;;;;;;1999.90;999.90;;;30.50;4.50;;;;;;5012464;28;20461;-71
2023/06/18 11:20:15;;;;;;;1999.90;999.90;;;30.10;1.50;;;;;;5012682;28;20400;-71
2023/06/18 11:22:41;;;;;;;1999.90;999.90;;;30.00;3.50;;;;;;5012342;28;20423;-71
2023/06/18 11:25:09;;;;;;;1999.90;999.90;;;30.10;2.10;;;;;;5012561;28;20968;-71
2023/06/18 11:27:38;;;;;;;1999.90;999.90;;;30.30;3.10;;;;;;5012512;28;20517;-71
2023/06/18 11:30:04;;;;;;;1999.90;999.90;;;30.40;1.00;;;;;;5012752;28;20416;-71
2023/06/18 11:32:29;;;;;;;1999.90;999.90;;;30.10;1.00;;;;;;5012118;28;20778;-71
2023/06/18 11:34:55;;;;;;;1999.90;999.90;;;30.00;2.00;;;;;;5012202;28;20431;-71
2023/06/18 11:37:25;;;;;;;1999.90;999.90;;;30.30;1.80;;;;;;5012353;28;20227;-70
2023/06/18 11:39:51;;;;;;;1999.90;999.90;;;30.40;1.20;;;;;;5011963;28;20181;-71
2023/06/18 11:42:20;;;;;;;1999.90;999.90;;;30.60;2.40;;;;;;5011700;28;20495;-71
2023/06/18 11:44:51;;;;;;;1999.90;999.90;;;30.90;1.10;;;;;;5011768;28;20212;-71
2023/06/18 11:47:17;;;;;;;1999.90;999.90;;;31.10;1.50;;;;;;5011945;28;20451;-70
2023/06/18 11:49:48;;;;;;;1999.90;999.90;;;31.20;1.80;;;;;;5012359;28;20487;-72
2023/06/18 11:52:18;;;;;;;1999.90;999.90;;;31.40;1.30;;;;;;5012331;28;20964;-71
2023/06/18 11:54:45;;;;;;;1999.90;999.90;;;31.60;1.20;;;;;;5012328;28;20792;-71
2023/06/18 11:57:16;;;;;;;1999.90;999.90;;;31.70;1.00;;;;;;5012383;28;20439;-70
2023/06/18 11:59:43;;;;;;;1999.90;999.90;;;31.30;1.00;;;;;;5012442;28;20407;-71
2023/06/18 12:02:17;;;;;;;1999.90;999.90;;;31.00;1.60;;;;;;5011838;28;20438;-72